sensor_id;sensor_type;location;lat;lon;timestamp;P1;durP1;ratioP1;P2;durP2;ratioP2
26201;SDS011;13944;28.562;77.188;2022-10-26T00:00:46;163.70;;;123.00;;
26201;SDS011;13944;28.562;77.188;2022-10-26T00:03:13;158.43;;;120.50;;
26201;SDS011;13944;28.562;77.188;2022-10-26T00:05:40;157.53;;;119.40;;
26201;SDS011;13944;28.562;77.188;2022-10-26T00:08:07;157.60;;;120.43;;
26201;SDS011;13944;28.562;77.188;2022-10-26T00:10:34;160.83;;;121.80;;
26201;SDS011;13944;28.562;77.188;2022-10-26T00:13:00;163.73;;;121.50;;
26201;SDS011;13944;28.562;77.188;2022-10-26T00:15:27;159.47;;;121.70;;
26201;SDS011;13944;28.562;77.188;2022-10-26T00:17:54;165.17;;;123.57;;
26201;SDS011;13944;28.562;77.188;2022-10-26T00:20:20;160.63;;;123.37;;
26201;SDS011;13944;28.562;77.188;2022-10-26T00:22:47;173.03;;;122.80;;
26201;SDS011;13944;28.562;77.188;2022-10-26T00:25:14;164.60;;;121.67;;
26201;SDS011;13944;28.562;77.188;2022-10-26T00:27:40;171.67;;;123.37;;
26201;SDS011;13944;28.562;77.188;2022-10-26T00:30:07;166.97;;;124.23;;
26201;SDS011;13944;28.562;77.188;2022-10-26T00:32:33;164.93;;;122.23;;
26201;SDS011;13944;28.562;77.188;2022-10-26T00:35:00;159.93;;;122.40;;
26201;SDS011;13944;28.562;77.188;2022-10-26T00:37:26;164.07;;;126.00;;
26201;SDS011;13944;28.562;77.188;2022-10-26T00:39:53;175.77;;;123.43;;
26201;SDS011;13944;28.562;77.188;2022-10-26T00:42:20;163.67;;;123.80;;
26201;SDS011;13944;28.562;77.188;2022-10-26T00:47:27;165.27;;;122.90;;
26201;SDS011;13944;28.562;77.188;2022-10-26T00:49:55;164.03;;;124.10;;
26201;SDS011;13944;28.562;77.188;2022-10-26T00:52:22;168.27;;;122.77;;
26201;SDS011;13944;28.562;77.188;2022-10-26T00:54:50;164.50;;;121.67;;
26201;SDS011;13944;28.562;77.188;2022-10-26T00:57:18;164.63;;;123.77;;
26201;SDS011;13944;28.562;77.188;2022-10-26T00:59:45;168.93;;;126.47;;
26201;SDS011;13944;28.562;77.188;2022-10-26T01:02:12;160.83;;;123.03;;
26201;SDS011;13944;28.562;77.188;2022-10-26T01:04:38;168.17;;;126.00;;
26201;SDS011;13944;28.562;77.188;2022-10-26T01:07:05;164.07;;;122.50;;
26201;SDS011;13944;28.562;77.188;2022-10-26T01:09:34;163.37;;;120.67;;
26201;SDS011;13944;28.562;77.188;2022-10-26T01:12:01;166.80;;;121.60;;
26201;SDS011;13944;28.562;77.188;2022-10-26T01:14:27;161.43;;;119.50;;
26201;SDS011;13944;28.562;77.188;2022-10-26T01:19:38;162.97;;;118.63;;
26201;SDS011;13944;28.562;77.188;2022-10-26T01:22:25;158.67;;;115.87;;
26201;SDS011;13944;28.562;77.188;2022-10-26T01:25:07;153.03;;;114.13;;
26201;SDS011;13944;28.562;77.188;2022-10-26T01:27:38;185.53;;;114.80;;
26201;SDS011;13944;28.562;77.188;2022-10-26T01:30:16;164.77;;;112.97;;
26201;SDS011;13944;28.562;77.188;2022-10-26T01:38:06;156.00;;;112.43;;
26201;SDS011;13944;28.562;77.188;2022-10-26T01:40:37;148.90;;;112.03;;
26201;SDS011;13944;28.562;77.188;2022-10-26T01:43:06;177.90;;;131.80;;
26201;SDS011;13944;28.562;77.188;2022-10-26T01:45:33;194.40;;;134.43;;
26201;SDS011;13944;28.562;77.188;2022-10-26T01:48:02;154.37;;;111.50;;
26201;SDS011;13944;28.562;77.188;2022-10-26T01:50:29;144.30;;;108.70;;
26201;SDS011;13944;28.562;77.188;2022-10-26T01:52:57;143.00;;;106.70;;
26201;SDS011;13944;28.562;77.188;2022-10-26T01:55:38;143.17;;;106.80;;
26201;SDS011;13944;28.562;77.188;2022-10-26T01:58:34;146.00;;;107.80;;
26201;SDS011;13944;28.562;77.188;2022-10-26T02:03:31;150.93;;;105.37;;
26201;SDS011;13944;28.562;77.188;2022-10-26T02:06:05;157.10;;;103.87;;
26201;SDS011;13944;28.562;77.188;2022-10-26T02:16:38;141.07;;;102.50;;
26201;SDS011;13944;28.562;77.188;2022-10-26T02:21:50;150.70;;;105.47;;
26201;SDS011;13944;28.562;77.188;2022-10-26T02:24:18;156.40;;;109.27;;
26201;SDS011;13944;28.562;77.188;2022-10-26T02:26:46;165.00;;;111.57;;
26201;SDS011;13944;28.562;77.188;2022-10-26T02:29:14;160.77;;;111.60;;
26201;SDS011;13944;28.562;77.188;2022-10-26T02:31:42;159.20;;;112.33;;
26201;SDS011;13944;28.562;77.188;2022-10-26T02:34:10;164.27;;;109.67;;
26201;SDS011;13944;28.562;77.188;2022-10-26T02:36:40;152.77;;;107.70;;
26201;SDS011;13944;28.562;77.188;2022-10-26T02:39:07;152.60;;;104.70;;
26201;SDS011;13944;28.562;77.188;2022-10-26T02:41:35;153.53;;;102.13;;
26201;SDS011;13944;28.562;77.188;2022-10-26T02:44:07;142.73;;;100.83;;
26201;SDS011;13944;28.562;77.188;2022-10-26T02:46:36;147.20;;;100.53;;
26201;SDS011;13944;28.562;77.188;2022-10-26T02:49:03;140.10;;;97.33;;
26201;SDS011;13944;28.562;77.188;2022-10-26T02:51:38;141.83;;;97.23;;
26201;SDS011;13944;28.562;77.188;2022-10-26T02:54:18;138.87;;;94.00;;
26201;SDS011;13944;28.562;77.188;2022-10-26T02:56:50;136.57;;;88.13;;
26201;SDS011;13944;28.562;77.188;2022-10-26T02:59:18;129.13;;;84.93;;
26201;SDS011;13944;28.562;77.188;2022-10-26T03:01:45;117.80;;;83.77;;
26201;SDS011;13944;28.562;77.188;2022-10-26T03:04:12;119.97;;;84.97;;
26201;SDS011;13944;28.562;77.188;2022-10-26T03:06:39;129.93;;;84.22;;
26201;SDS011;13944;28.562;77.188;2022-10-26T03:09:06;130.00;;;84.53;;
26201;SDS011;13944;28.562;77.188;2022-10-26T03:11:32;124.50;;;85.37;;
26201;SDS011;13944;28.562;77.188;2022-10-26T03:13:59;129.53;;;83.13;;
26201;SDS011;13944;28.562;77.188;2022-10-26T03:16:25;129.27;;;84.18;;
26201;SDS011;13944;28.562;77.188;2022-10-26T03:18:52;122.60;;;83.68;;
26201;SDS011;13944;28.562;77.188;2022-10-26T03:21:18;118.23;;;80.80;;
26201;SDS011;13944;28.562;77.188;2022-10-26T03:23:45;109.85;;;75.32;;
26201;SDS011;13944;28.562;77.188;2022-10-26T03:26:12;131.30;;;83.95;;
26201;SDS011;13944;28.562;77.188;2022-10-26T03:28:38;126.57;;;79.28;;
26201;SDS011;13944;28.562;77.188;2022-10-26T03:31:05;105.45;;;72.82;;
26201;SDS011;13944;28.562;77.188;2022-10-26T03:33:31;118.88;;;77.72;;
26201;SDS011;13944;28.562;77.188;2022-10-26T03:35:58;118.03;;;75.38;;
26201;SDS011;13944;28.562;77.188;2022-10-26T03:38:25;110.72;;;77.20;;
26201;SDS011;13944;28.562;77.188;2022-10-26T03:40:51;121.43;;;78.35;;
26201;SDS011;13944;28.562;77.188;2022-10-26T03:43:18;97.47;;;72.68;;
26201;SDS011;13944;28.562;77.188;2022-10-26T03:45:44;104.18;;;72.72;;
26201;SDS011;13944;28.562;77.188;2022-10-26T03:48:11;105.57;;;77.95;;
26201;SDS011;13944;28.562;77.188;2022-10-26T03:50:38;111.85;;;76.43;;
26201;SDS011;13944;28.562;77.188;2022-10-26T03:53:04;104.50;;;75.07;;
26201;SDS011;13944;28.562;77.188;2022-10-26T03:55:31;104.32;;;71.93;;
26201;SDS011;13944;28.562;77.188;2022-10-26T03:57:57;123.43;;;75.13;;
26201;SDS011;13944;28.562;77.188;2022-10-26T04:00:24;108.88;;;74.05;;
26201;SDS011;13944;28.562;77.188;2022-10-26T04:02:57;116.82;;;73.60;;
26201;SDS011;13944;28.562;77.188;2022-10-26T04:05:24;109.35;;;75.50;;
26201;SDS011;13944;28.562;77.188;2022-10-26T04:07:58;106.72;;;75.35;;
26201;SDS011;13944;28.562;77.188;2022-10-26T04:10:27;108.35;;;71.22;;
26201;SDS011;13944;28.562;77.188;2022-10-26T04:12:54;113.47;;;72.00;;
26201;SDS011;13944;28.562;77.188;2022-10-26T04:15:20;92.05;;;65.28;;
26201;SDS011;13944;28.562;77.188;2022-10-26T04:17:47;116.72;;;76.63;;
26201;SDS011;13944;28.562;77.188;2022-10-26T04:20:14;108.93;;;77.00;;
26201;SDS011;13944;28.562;77.188;2022-10-26T04:22:40;120.03;;;78.50;;
26201;SDS011;13944;28.562;77.188;2022-10-26T04:25:07;108.95;;;74.63;;
26201;SDS011;13944;28.562;77.188;2022-10-26T04:27:35;108.07;;;73.65;;
26201;SDS011;13944;28.562;77.188;2022-10-26T04:30:02;104.22;;;72.90;;
26201;SDS011;13944;28.562;77.188;2022-10-26T04:32:29;111.72;;;72.40;;
26201;SDS011;13944;28.562;77.188;2022-10-26T04:34:56;101.90;;;70.20;;
26201;SDS011;13944;28.562;77.188;2022-10-26T04:37:23;96.75;;;69.20;;
26201;SDS011;13944;28.562;77.188;2022-10-26T04:39:49;104.25;;;69.65;;
26201;SDS011;13944;28.562;77.188;2022-10-26T04:42:16;104.10;;;70.03;;
26201;SDS011;13944;28.562;77.188;2022-10-26T04:44:42;105.45;;;70.43;;
26201;SDS011;13944;28.562;77.188;2022-10-26T04:47:09;114.05;;;78.20;;
26201;SDS011;13944;28.562;77.188;2022-10-26T04:49:35;109.60;;;69.50;;
26201;SDS011;13944;28.562;77.188;2022-10-26T04:52:02;105.55;;;70.60;;
26201;SDS011;13944;28.562;77.188;2022-10-26T04:54:30;119.72;;;79.40;;
26201;SDS011;13944;28.562;77.188;2022-10-26T04:56:56;106.93;;;73.72;;
26201;SDS011;13944;28.562;77.188;2022-10-26T04:59:23;109.03;;;78.70;;
26201;SDS011;13944;28.562;77.188;2022-10-26T05:01:49;117.50;;;76.90;;
26201;SDS011;13944;28.562;77.188;2022-10-26T05:04:16;108.63;;;76.40;;
26201;SDS011;13944;28.562;77.188;2022-10-26T05:06:42;116.60;;;76.63;;
26201;SDS011;13944;28.562;77.188;2022-10-26T05:09:09;108.53;;;74.35;;
26201;SDS011;13944;28.562;77.188;2022-10-26T05:11:36;115.15;;;77.50;;
26201;SDS011;13944;28.562;77.188;2022-10-26T05:14:02;115.82;;;78.43;;
26201;SDS011;13944;28.562;77.188;2022-10-26T05:16:29;124.72;;;78.20;;
26201;SDS011;13944;28.562;77.188;2022-10-26T05:18:55;114.20;;;75.85;;
26201;SDS011;13944;28.562;77.188;2022-10-26T05:21:22;111.95;;;73.90;;
26201;SDS011;13944;28.562;77.188;2022-10-26T05:23:51;108.50;;;71.55;;
26201;SDS011;13944;28.562;77.188;2022-10-26T05:26:20;121.75;;;75.22;;
26201;SDS011;13944;28.562;77.188;2022-10-26T05:28:47;119.82;;;77.40;;
26201;SDS011;13944;28.562;77.188;2022-10-26T05:31:13;122.78;;;78.28;;
26201;SDS011;13944;28.562;77.188;2022-10-26T05:33:40;120.07;;;77.45;;
26201;SDS011;13944;28.562;77.188;2022-10-26T05:36:09;116.40;;;76.70;;
26201;SDS011;13944;28.562;77.188;2022-10-26T05:38:35;117.25;;;74.78;;
26201;SDS011;13944;28.562;77.188;2022-10-26T05:41:02;129.60;;;76.43;;
26201;SDS011;13944;28.562;77.188;2022-10-26T05:43:28;118.75;;;71.30;;
26201;SDS011;13944;28.562;77.188;2022-10-26T05:45:55;106.90;;;68.55;;
26201;SDS011;13944;28.562;77.188;2022-10-26T05:48:21;102.80;;;70.72;;
26201;SDS011;13944;28.562;77.188;2022-10-26T05:50:48;114.28;;;71.65;;
26201;SDS011;13944;28.562;77.188;2022-10-26T05:53:14;107.10;;;74.38;;
26201;SDS011;13944;28.562;77.188;2022-10-26T05:55:41;104.30;;;72.32;;
26201;SDS011;13944;28.562;77.188;2022-10-26T05:58:09;106.30;;;72.32;;
26201;SDS011;13944;28.562;77.188;2022-10-26T06:00:36;106.95;;;71.05;;
26201;SDS011;13944;28.562;77.188;2022-10-26T06:05:49;96.82;;;69.45;;
26201;SDS011;13944;28.562;77.188;2022-10-26T06:08:16;106.57;;;73.88;;
26201;SDS011;13944;28.562;77.188;2022-10-26T06:10:43;109.00;;;74.53;;
26201;SDS011;13944;28.562;77.188;2022-10-26T06:13:10;104.03;;;74.07;;
26201;SDS011;13944;28.562;77.188;2022-10-26T06:15:41;99.82;;;72.07;;
26201;SDS011;13944;28.562;77.188;2022-10-26T06:18:17;100.00;;;72.15;;
26201;SDS011;13944;28.562;77.188;2022-10-26T06:20:52;106.30;;;75.68;;
26201;SDS011;13944;28.562;77.188;2022-10-26T06:23:28;106.53;;;73.43;;
26201;SDS011;13944;28.562;77.188;2022-10-26T06:26:09;110.75;;;72.28;;
26201;SDS011;13944;28.562;77.188;2022-10-26T06:31:07;105.30;;;70.28;;
26201;SDS011;13944;28.562;77.188;2022-10-26T06:33:33;124.05;;;75.75;;
26201;SDS011;13944;28.562;77.188;2022-10-26T06:36:33;119.53;;;77.15;;
26201;SDS011;13944;28.562;77.188;2022-10-26T06:38:54;122.20;;;78.43;;
26201;SDS011;13944;28.562;77.188;2022-10-26T06:41:21;119.05;;;81.65;;
26201;SDS011;13944;28.562;77.188;2022-10-26T06:43:48;146.65;;;82.43;;
26201;SDS011;13944;28.562;77.188;2022-10-26T06:51:14;103.50;;;75.55;;
26201;SDS011;13944;28.562;77.188;2022-10-26T06:53:52;133.82;;;81.57;;
26201;SDS011;13944;28.562;77.188;2022-10-26T06:56:21;135.23;;;81.43;;
26201;SDS011;13944;28.562;77.188;2022-10-26T06:58:49;128.43;;;79.65;;
26201;SDS011;13944;28.562;77.188;2022-10-26T07:01:17;134.02;;;80.75;;
26201;SDS011;13944;28.562;77.188;2022-10-26T07:03:44;126.13;;;83.80;;
26201;SDS011;13944;28.562;77.188;2022-10-26T07:06:10;120.95;;;82.38;;
26201;SDS011;13944;28.562;77.188;2022-10-26T07:08:37;105.35;;;78.47;;
26201;SDS011;13944;28.562;77.188;2022-10-26T07:11:03;110.28;;;82.47;;
26201;SDS011;13944;28.562;77.188;2022-10-26T07:13:30;113.47;;;80.93;;
26201;SDS011;13944;28.562;77.188;2022-10-26T07:15:57;112.38;;;79.72;;
26201;SDS011;13944;28.562;77.188;2022-10-26T07:18:23;111.53;;;79.53;;
26201;SDS011;13944;28.562;77.188;2022-10-26T07:20:50;114.43;;;80.90;;
26201;SDS011;13944;28.562;77.188;2022-10-26T07:23:16;117.57;;;84.93;;
26201;SDS011;13944;28.562;77.188;2022-10-26T07:25:43;116.45;;;82.90;;
26201;SDS011;13944;28.562;77.188;2022-10-26T07:28:10;114.18;;;81.97;;
26201;SDS011;13944;28.562;77.188;2022-10-26T07:30:37;126.22;;;87.43;;
26201;SDS011;13944;28.562;77.188;2022-10-26T07:33:06;120.95;;;86.65;;
26201;SDS011;13944;28.562;77.188;2022-10-26T07:35:33;122.45;;;87.57;;
26201;SDS011;13944;28.562;77.188;2022-10-26T07:37:59;120.05;;;85.10;;
26201;SDS011;13944;28.562;77.188;2022-10-26T07:40:26;118.13;;;85.80;;
26201;SDS011;13944;28.562;77.188;2022-10-26T07:42:56;115.68;;;85.95;;
26201;SDS011;13944;28.562;77.188;2022-10-26T07:45:23;126.10;;;86.63;;
26201;SDS011;13944;28.562;77.188;2022-10-26T07:47:50;111.18;;;87.57;;
26201;SDS011;13944;28.562;77.188;2022-10-26T07:50:17;109.90;;;81.05;;
26201;SDS011;13944;28.562;77.188;2022-10-26T07:52:43;108.95;;;83.22;;
26201;SDS011;13944;28.562;77.188;2022-10-26T07:55:10;112.75;;;82.60;;
26201;SDS011;13944;28.562;77.188;2022-10-26T07:57:37;110.90;;;84.68;;
26201;SDS011;13944;28.562;77.188;2022-10-26T08:00:05;105.72;;;81.65;;
26201;SDS011;13944;28.562;77.188;2022-10-26T08:02:32;114.10;;;83.45;;
26201;SDS011;13944;28.562;77.188;2022-10-26T08:04:59;106.43;;;81.72;;
26201;SDS011;13944;28.562;77.188;2022-10-26T08:07:26;108.43;;;84.93;;
26201;SDS011;13944;28.562;77.188;2022-10-26T08:09:53;113.68;;;84.20;;
26201;SDS011;13944;28.562;77.188;2022-10-26T08:12:19;103.80;;;81.72;;
26201;SDS011;13944;28.562;77.188;2022-10-26T08:14:46;108.05;;;81.07;;
26201;SDS011;13944;28.562;77.188;2022-10-26T08:17:15;100.43;;;78.90;;
26201;SDS011;13944;28.562;77.188;2022-10-26T08:19:42;107.82;;;82.10;;
26201;SDS011;13944;28.562;77.188;2022-10-26T08:22:08;109.60;;;83.45;;
26201;SDS011;13944;28.562;77.188;2022-10-26T08:24:35;109.45;;;86.38;;
26201;SDS011;13944;28.562;77.188;2022-10-26T08:27:01;113.95;;;83.65;;
26201;SDS011;13944;28.562;77.188;2022-10-26T08:29:28;110.15;;;80.65;;
26201;SDS011;13944;28.562;77.188;2022-10-26T08:31:54;102.70;;;81.07;;
26201;SDS011;13944;28.562;77.188;2022-10-26T08:34:21;110.30;;;81.63;;
26201;SDS011;13944;28.562;77.188;2022-10-26T08:36:50;101.65;;;79.05;;
26201;SDS011;13944;28.562;77.188;2022-10-26T08:39:17;111.65;;;81.70;;
26201;SDS011;13944;28.562;77.188;2022-10-26T08:41:44;104.45;;;80.47;;
26201;SDS011;13944;28.562;77.188;2022-10-26T08:46:39;110.22;;;79.78;;
26201;SDS011;13944;28.562;77.188;2022-10-26T08:49:17;110.50;;;78.95;;
26201;SDS011;13944;28.562;77.188;2022-10-26T08:51:44;101.65;;;75.35;;
26201;SDS011;13944;28.562;77.188;2022-10-26T08:59:37;101.80;;;74.07;;
26201;SDS011;13944;28.562;77.188;2022-10-26T09:02:12;122.55;;;80.38;;
26201;SDS011;13944;28.562;77.188;2022-10-26T09:04:39;104.43;;;74.65;;
26201;SDS011;13944;28.562;77.188;2022-10-26T09:07:28;117.70;;;75.55;;
26201;SDS011;13944;28.562;77.188;2022-10-26T09:12:37;119.90;;;78.30;;
26201;SDS011;13944;28.562;77.188;2022-10-26T09:23:01;115.50;;;77.43;;
26201;SDS011;13944;28.562;77.188;2022-10-26T09:25:33;127.80;;;79.30;;
26201;SDS011;13944;28.562;77.188;2022-10-26T09:28:01;125.03;;;80.15;;
26201;SDS011;13944;28.562;77.188;2022-10-26T09:30:29;132.32;;;83.47;;
26201;SDS011;13944;28.562;77.188;2022-10-26T09:32:59;131.55;;;80.78;;
26201;SDS011;13944;28.562;77.188;2022-10-26T09:35:32;123.00;;;79.22;;
26201;SDS011;13944;28.562;77.188;2022-10-26T09:38:04;113.05;;;78.95;;
26201;SDS011;13944;28.562;77.188;2022-10-26T09:43:04;122.93;;;80.35;;
26201;SDS011;13944;28.562;77.188;2022-10-26T09:45:33;111.93;;;78.15;;
26201;SDS011;13944;28.562;77.188;2022-10-26T09:48:21;111.25;;;77.82;;
26201;SDS011;13944;28.562;77.188;2022-10-26T09:50:50;106.93;;;75.45;;
26201;SDS011;13944;28.562;77.188;2022-10-26T09:53:17;101.70;;;70.65;;
26201;SDS011;13944;28.562;77.188;2022-10-26T09:55:47;106.93;;;77.57;;
26201;SDS011;13944;28.562;77.188;2022-10-26T09:58:15;115.95;;;80.50;;
26201;SDS011;13944;28.562;77.188;2022-10-26T10:00:43;106.03;;;71.38;;
26201;SDS011;13944;28.562;77.188;2022-10-26T10:03:20;83.68;;;62.22;;
26201;SDS011;13944;28.562;77.188;2022-10-26T10:05:50;103.05;;;74.72;;
26201;SDS011;13944;28.562;77.188;2022-10-26T10:08:17;100.53;;;69.97;;
26201;SDS011;13944;28.562;77.188;2022-10-26T10:10:54;112.85;;;75.50;;
26201;SDS011;13944;28.562;77.188;2022-10-26T10:13:22;111.90;;;76.18;;
26201;SDS011;13944;28.562;77.188;2022-10-26T10:15:50;102.88;;;74.60;;
26201;SDS011;13944;28.562;77.188;2022-10-26T10:18:19;101.97;;;72.85;;
26201;SDS011;13944;28.562;77.188;2022-10-26T10:20:55;107.53;;;72.80;;
26201;SDS011;13944;28.562;77.188;2022-10-26T10:23:24;106.10;;;72.75;;
26201;SDS011;13944;28.562;77.188;2022-10-26T10:26:07;98.55;;;70.15;;
26201;SDS011;13944;28.562;77.188;2022-10-26T10:28:38;110.68;;;72.65;;
26201;SDS011;13944;28.562;77.188;2022-10-26T10:31:20;102.32;;;70.80;;
26201;SDS011;13944;28.562;77.188;2022-10-26T10:33:46;104.00;;;73.03;;
26201;SDS011;13944;28.562;77.188;2022-10-26T10:36:15;96.18;;;69.15;;
26201;SDS011;13944;28.562;77.188;2022-10-26T10:38:44;83.90;;;60.60;;
26201;SDS011;13944;28.562;77.188;2022-10-26T10:41:15;93.45;;;68.68;;
26201;SDS011;13944;28.562;77.188;2022-10-26T10:43:46;108.63;;;72.75;;
26201;SDS011;13944;28.562;77.188;2022-10-26T10:46:16;96.38;;;69.40;;
26201;SDS011;13944;28.562;77.188;2022-10-26T10:48:51;94.43;;;66.55;;
26201;SDS011;13944;28.562;77.188;2022-10-26T10:51:19;97.63;;;68.78;;
26201;SDS011;13944;28.562;77.188;2022-10-26T10:58:49;95.00;;;67.13;;
26201;SDS011;13944;28.562;77.188;2022-10-26T11:01:20;94.78;;;69.32;;
26201;SDS011;13944;28.562;77.188;2022-10-26T11:06:23;87.10;;;66.32;;
26201;SDS011;13944;28.562;77.188;2022-10-26T11:08:59;87.43;;;61.67;;
26201;SDS011;13944;28.562;77.188;2022-10-26T11:14:10;101.57;;;68.30;;
26201;SDS011;13944;28.562;77.188;2022-10-26T11:16:49;94.07;;;67.93;;
26201;SDS011;13944;28.562;77.188;2022-10-26T11:21:52;91.50;;;63.10;;
26201;SDS011;13944;28.562;77.188;2022-10-26T11:27:32;91.38;;;65.75;;
26201;SDS011;13944;28.562;77.188;2022-10-26T11:37:09;112.13;;;76.60;;
26201;SDS011;13944;28.562;77.188;2022-10-26T11:39:38;107.63;;;75.35;;
26201;SDS011;13944;28.562;77.188;2022-10-26T11:42:28;106.97;;;75.85;;
26201;SDS011;13944;28.562;77.188;2022-10-26T11:44:58;106.00;;;76.18;;
26201;SDS011;13944;28.562;77.188;2022-10-26T11:47:34;110.57;;;72.50;;
26201;SDS011;13944;28.562;77.188;2022-10-26T11:52:51;100.05;;;64.25;;
26201;SDS011;13944;28.562;77.188;2022-10-26T11:55:19;105.25;;;66.32;;
26201;SDS011;13944;28.562;77.188;2022-10-26T11:57:47;115.45;;;73.55;;
26201;SDS011;13944;28.562;77.188;2022-10-26T12:00:15;112.05;;;65.68;;
26201;SDS011;13944;28.562;77.188;2022-10-26T12:02:45;102.45;;;64.07;;
26201;SDS011;13944;28.562;77.188;2022-10-26T12:07:46;134.00;;;85.80;;
26201;SDS011;13944;28.562;77.188;2022-10-26T12:10:22;124.32;;;80.93;;
26201;SDS011;13944;28.562;77.188;2022-10-26T12:12:52;132.27;;;86.72;;
26201;SDS011;13944;28.562;77.188;2022-10-26T12:15:40;113.72;;;75.68;;
26201;SDS011;13944;28.562;77.188;2022-10-26T12:23:18;127.03;;;81.38;;
26201;SDS011;13944;28.562;77.188;2022-10-26T12:25:45;131.57;;;89.93;;
26201;SDS011;13944;28.562;77.188;2022-10-26T12:28:45;108.78;;;69.72;;
26201;SDS011;13944;28.562;77.188;2022-10-26T12:34:04;116.70;;;76.82;;
26201;SDS011;13944;28.562;77.188;2022-10-26T12:39:37;158.50;;;108.57;;
26201;SDS011;13944;28.562;77.188;2022-10-26T12:44:38;158.57;;;107.72;;
26201;SDS011;13944;28.562;77.188;2022-10-26T12:47:06;170.05;;;116.90;;
26201;SDS011;13944;28.562;77.188;2022-10-26T12:52:24;163.30;;;113.60;;
26201;SDS011;13944;28.562;77.188;2022-10-26T12:55:00;156.43;;;112.82;;
26201;SDS011;13944;28.562;77.188;2022-10-26T12:57:30;151.95;;;113.30;;
26201;SDS011;13944;28.562;77.188;2022-10-26T13:00:01;171.15;;;119.45;;
26201;SDS011;13944;28.562;77.188;2022-10-26T13:03:06;179.18;;;119.32;;
26201;SDS011;13944;28.562;77.188;2022-10-26T13:08:11;182.40;;;121.63;;
26201;SDS011;13944;28.562;77.188;2022-10-26T13:10:39;180.50;;;126.35;;
26201;SDS011;13944;28.562;77.188;2022-10-26T13:13:17;184.00;;;125.25;;
26201;SDS011;13944;28.562;77.188;2022-10-26T13:15:53;193.57;;;127.97;;
26201;SDS011;13944;28.562;77.188;2022-10-26T13:18:20;167.63;;;125.57;;
26201;SDS011;13944;28.562;77.188;2022-10-26T13:20:51;193.88;;;130.95;;
26201;SDS011;13944;28.562;77.188;2022-10-26T13:23:25;197.25;;;127.22;;
26201;SDS011;13944;28.562;77.188;2022-10-26T13:33:50;177.55;;;127.97;;
26201;SDS011;13944;28.562;77.188;2022-10-26T13:36:19;199.00;;;132.50;;
26201;SDS011;13944;28.562;77.188;2022-10-26T13:38:46;201.85;;;139.18;;
26201;SDS011;13944;28.562;77.188;2022-10-26T13:41:21;206.23;;;143.65;;
26201;SDS011;13944;28.562;77.188;2022-10-26T13:43:50;204.98;;;147.75;;
26201;SDS011;13944;28.562;77.188;2022-10-26T13:46:25;203.07;;;147.60;;
26201;SDS011;13944;28.562;77.188;2022-10-26T13:48:53;205.95;;;147.43;;
26201;SDS011;13944;28.562;77.188;2022-10-26T13:51:23;211.25;;;152.02;;
26201;SDS011;13944;28.562;77.188;2022-10-26T13:53:51;216.60;;;153.60;;
26201;SDS011;13944;28.562;77.188;2022-10-26T13:59:07;213.55;;;160.70;;
26201;SDS011;13944;28.562;77.188;2022-10-26T14:01:34;242.57;;;171.05;;
26201;SDS011;13944;28.562;77.188;2022-10-26T14:04:14;240.60;;;164.73;;
26201;SDS011;13944;28.562;77.188;2022-10-26T14:06:41;221.23;;;162.70;;
26201;SDS011;13944;28.562;77.188;2022-10-26T14:09:12;226.60;;;167.57;;
26201;SDS011;13944;28.562;77.188;2022-10-26T14:14:19;224.02;;;166.27;;
26201;SDS011;13944;28.562;77.188;2022-10-26T14:16:48;226.20;;;168.02;;
26201;SDS011;13944;28.562;77.188;2022-10-26T14:19:16;232.50;;;171.95;;
26201;SDS011;13944;28.562;77.188;2022-10-26T14:21:45;239.02;;;170.02;;
26201;SDS011;13944;28.562;77.188;2022-10-26T14:24:26;217.98;;;161.77;;
26201;SDS011;13944;28.562;77.188;2022-10-26T14:26:52;243.48;;;163.02;;
26201;SDS011;13944;28.562;77.188;2022-10-26T14:29:20;228.88;;;165.43;;
26201;SDS011;13944;28.562;77.188;2022-10-26T14:31:47;212.60;;;160.77;;
26201;SDS011;13944;28.562;77.188;2022-10-26T14:34:14;219.18;;;166.32;;
26201;SDS011;13944;28.562;77.188;2022-10-26T14:41:47;238.18;;;173.82;;
26201;SDS011;13944;28.562;77.188;2022-10-26T14:44:18;224.13;;;175.73;;
26201;SDS011;13944;28.562;77.188;2022-10-26T14:46:46;243.18;;;182.15;;
26201;SDS011;13944;28.562;77.188;2022-10-26T14:49:19;239.27;;;180.93;;
26201;SDS011;13944;28.562;77.188;2022-10-26T14:51:47;241.63;;;180.18;;
26201;SDS011;13944;28.562;77.188;2022-10-26T14:54:20;234.27;;;178.80;;
26201;SDS011;13944;28.562;77.188;2022-10-26T14:56:47;230.13;;;178.20;;
26201;SDS011;13944;28.562;77.188;2022-10-26T14:59:24;236.85;;;174.82;;
26201;SDS011;13944;28.562;77.188;2022-10-26T15:04:37;239.18;;;178.80;;
26201;SDS011;13944;28.562;77.188;2022-10-26T15:09:41;234.60;;;172.48;;
26201;SDS011;13944;28.562;77.188;2022-10-26T15:12:16;229.18;;;171.43;;
26201;SDS011;13944;28.562;77.188;2022-10-26T15:14:44;226.82;;;169.98;;
26201;SDS011;13944;28.562;77.188;2022-10-26T15:17:30;226.23;;;171.38;;
26201;SDS011;13944;28.562;77.188;2022-10-26T15:20:03;218.90;;;170.10;;
26201;SDS011;13944;28.562;77.188;2022-10-26T15:22:30;216.70;;;170.65;;
26201;SDS011;13944;28.562;77.188;2022-10-26T15:24:57;222.38;;;173.55;;
26201;SDS011;13944;28.562;77.188;2022-10-26T15:27:24;226.57;;;174.63;;
26201;SDS011;13944;28.562;77.188;2022-10-26T15:29:51;225.65;;;176.38;;
26201;SDS011;13944;28.562;77.188;2022-10-26T15:32:33;223.73;;;172.50;;
26201;SDS011;13944;28.562;77.188;2022-10-26T15:37:45;222.57;;;171.77;;
26201;SDS011;13944;28.562;77.188;2022-10-26T15:40:11;226.75;;;172.60;;
26201;SDS011;13944;28.562;77.188;2022-10-26T15:42:39;227.27;;;174.40;;
26201;SDS011;13944;28.562;77.188;2022-10-26T15:45:14;246.20;;;177.25;;
26201;SDS011;13944;28.562;77.188;2022-10-26T15:47:40;225.25;;;173.70;;
26201;SDS011;13944;28.562;77.188;2022-10-26T15:50:14;237.65;;;178.35;;
26201;SDS011;13944;28.562;77.188;2022-10-26T15:52:41;232.27;;;173.82;;
26201;SDS011;13944;28.562;77.188;2022-10-26T15:55:08;222.57;;;171.98;;
26201;SDS011;13944;28.562;77.188;2022-10-26T15:57:35;240.98;;;177.00;;
26201;SDS011;13944;28.562;77.188;2022-10-26T16:00:02;229.90;;;175.18;;
26201;SDS011;13944;28.562;77.188;2022-10-26T16:02:29;227.13;;;180.57;;
26201;SDS011;13944;28.562;77.188;2022-10-26T16:04:55;227.93;;;181.55;;
26201;SDS011;13944;28.562;77.188;2022-10-26T16:07:22;243.95;;;184.00;;
26201;SDS011;13944;28.562;77.188;2022-10-26T16:09:49;237.80;;;190.25;;
26201;SDS011;13944;28.562;77.188;2022-10-26T16:12:16;241.80;;;190.50;;
26201;SDS011;13944;28.562;77.188;2022-10-26T16:14:43;242.50;;;188.23;;